sensor_id;sensor_type;location;lat;lon;timestamp;pressure;altitude;pressure_sealevel;temperature;humidity
32733;BME280;11867;51.198;11.966;2022-08-21T00:03:17;100510.38;;;19.98;100.00
32733;BME280;11867;51.198;11.966;2022-08-21T00:08:20;100513.56;;;19.46;100.00
32733;BME280;11867;51.198;11.966;2022-08-21T00:13:24;100507.34;;;19.70;100.00
32733;BME280;11867;51.198;11.966;2022-08-21T00:18:26;100499.59;;;18.91;100.00
32733;BME280;11867;51.198;11.966;2022-08-21T00:23:29;100492.38;;;18.99;100.00
32733;BME280;11867;51.198;11.966;2022-08-21T00:28:33;100493.81;;;19.56;100.00
32733;BME280;11867;51.198;11.966;2022-08-21T00:33:36;100507.53;;;19.23;100.00
32733;BME280;11867;51.198;11.966;2022-08-21T00:38:39;100498.66;;;19.38;100.00
32733;BME280;11867;51.198;11.966;2022-08-21T00:43:43;100494.88;;;20.18;100.00
32733;BME280;11867;51.198;11.966;2022-08-21T00:48:46;100504.50;;;19.36;100.00
32733;BME280;11867;51.198;11.966;2022-08-21T00:53:51;100502.56;;;19.58;100.00
32733;BME280;11867;51.198;11.966;2022-08-21T00:58:58;100507.72;;;19.18;100.00
32733;BME280;11867;51.198;11.966;2022-08-21T01:04:02;100504.41;;;19.54;100.00
32733;BME280;11867;51.198;11.966;2022-08-21T01:09:04;100515.59;;;19.07;100.00
32733;BME280;11867;51.198;11.966;2022-08-21T01:14:08;100505.63;;;18.85;100.00
32733;BME280;11867;51.198;11.966;2022-08-21T01:19:11;100509.00;;;19.20;100.00
32733;BME280;11867;51.198;11.966;2022-08-21T01:24:16;100501.56;;;19.12;100.00
32733;BME280;11867;51.198;11.966;2022-08-21T01:29:26;100503.72;;;19.78;100.00
32733;BME280;11867;51.198;11.966;2022-08-21T01:34:32;100505.03;;;19.81;100.00
32733;BME280;11867;51.198;11.966;2022-08-21T01:39:36;100498.50;;;19.98;100.00
32733;BME280;11867;51.198;11.966;2022-08-21T01:44:40;100493.81;;;19.56;100.00
32733;BME280;11867;51.198;11.966;2022-08-21T01:49:43;100494.78;;;19.30;100.00
32733;BME280;11867;51.198;11.966;2022-08-21T01:54:48;100484.03;;;19.08;100.00
32733;BME280;11867;51.198;11.966;2022-08-21T01:59:55;100485.50;;;19.77;100.00
32733;BME280;11867;51.198;11.966;2022-08-21T02:04:58;100491.81;;;19.99;100.00
32733;BME280;11867;51.198;11.966;2022-08-21T02:10:03;100482.06;;;20.13;100.00
32733;BME280;11867;51.198;11.966;2022-08-21T02:15:08;100485.69;;;19.30;100.00
32733;BME280;11867;51.198;11.966;2022-08-21T02:20:16;100494.13;;;19.04;100.00
32733;BME280;11867;51.198;11.966;2022-08-21T02:25:23;100491.25;;;19.00;100.00
32733;BME280;11867;51.198;11.966;2022-08-21T02:30:29;100495.56;;;19.40;100.00
32733;BME280;11867;51.198;11.966;2022-08-21T02:35:32;100509.03;;;19.41;100.00
32733;BME280;11867;51.198;11.966;2022-08-21T02:40:39;100502.03;;;19.65;100.00
32733;BME280;11867;51.198;11.966;2022-08-21T02:45:49;100487.41;;;19.85;100.00
32733;BME280;11867;51.198;11.966;2022-08-21T02:50:54;100502.16;;;19.89;100.00
32733;BME280;11867;51.198;11.966;2022-08-21T02:56:00;100501.97;;;19.73;100.00
32733;BME280;11867;51.198;11.966;2022-08-21T03:01:04;100498.97;;;18.86;100.00
32733;BME280;11867;51.198;11.966;2022-08-21T03:06:13;100496.34;;;19.40;100.00
32733;BME280;11867;51.198;11.966;2022-08-21T03:11:17;100507.53;;;19.23;100.00
32733;BME280;11867;51.198;11.966;2022-08-21T03:16:21;100498.16;;;19.57;100.00
32733;BME280;11867;51.198;11.966;2022-08-21T03:21:24;100497.19;;;19.62;100.00
32733;BME280;11867;51.198;11.966;2022-08-21T03:26:28;100493.94;;;20.14;100.00
32733;BME280;11867;51.198;11.966;2022-08-21T03:31:31;100492.03;;;19.93;100.00
32733;BME280;11867;51.198;11.966;2022-08-21T03:36:34;100503.25;;;19.76;100.00
32733;BME280;11867;51.198;11.966;2022-08-21T03:41:38;100502.66;;;19.70;100.00
32733;BME280;11867;51.198;11.966;2022-08-21T03:46:40;100505.03;;;19.81;100.00
32733;BME280;11867;51.198;11.966;2022-08-21T03:51:43;100511.88;;;20.29;97.57
32733;BME280;11867;51.198;11.966;2022-08-21T03:56:47;100511.34;;;19.39;100.00
32733;BME280;11867;51.198;11.966;2022-08-21T04:01:53;100506.78;;;18.84;100.00
32733;BME280;11867;51.198;11.966;2022-08-21T04:06:56;100505.19;;;19.33;100.00
32733;BME280;11867;51.198;11.966;2022-08-21T04:12:01;100507.28;;;18.77;100.00
32733;BME280;11867;51.198;11.966;2022-08-21T04:17:04;100517.84;;;18.19;100.00
32733;BME280;11867;51.198;11.966;2022-08-21T04:22:06;100519.16;;;18.22;100.00
32733;BME280;11867;51.198;11.966;2022-08-21T04:27:10;100521.41;;;18.20;100.00
32733;BME280;11867;51.198;11.966;2022-08-21T04:32:13;100525.94;;;18.33;100.00
32733;BME280;11867;51.198;11.966;2022-08-21T04:37:23;100531.81;;;18.05;100.00
32733;BME280;11867;51.198;11.966;2022-08-21T04:42:27;100541.88;;;17.75;100.00
32733;BME280;11867;51.198;11.966;2022-08-21T04:47:30;100536.31;;;18.92;100.00
32733;BME280;11867;51.198;11.966;2022-08-21T04:52:52;100543.72;;;18.62;100.00
32733;BME280;11867;51.198;11.966;2022-08-21T04:57:57;100546.22;;;18.93;100.00
32733;BME280;11867;51.198;11.966;2022-08-21T05:02:59;100533.63;;;19.85;98.38
32733;BME280;11867;51.198;11.966;2022-08-21T05:08:04;100549.22;;;19.89;98.02
32733;BME280;11867;51.198;11.966;2022-08-21T05:13:11;100548.19;;;19.94;97.65
32733;BME280;11867;51.198;11.966;2022-08-21T05:18:13;100542.97;;;19.92;97.90
32733;BME280;11867;51.198;11.966;2022-08-21T05:23:16;100550.38;;;19.59;100.00
32733;BME280;11867;51.198;11.966;2022-08-21T05:28:20;100539.81;;;19.82;99.87
32733;BME280;11867;51.198;11.966;2022-08-21T05:33:24;100560.03;;;20.49;92.18
32733;BME280;11867;51.198;11.966;2022-08-21T05:38:27;100563.81;;;20.65;89.05
32733;BME280;11867;51.198;11.966;2022-08-21T05:43:31;100551.56;;;20.33;93.55
32733;BME280;11867;51.198;11.966;2022-08-21T05:48:35;100555.41;;;20.41;93.88
32733;BME280;11867;51.198;11.966;2022-08-21T05:53:40;100560.28;;;20.23;90.14
32733;BME280;11867;51.198;11.966;2022-08-21T05:58:45;100561.19;;;20.48;89.92
32733;BME280;11867;51.198;11.966;2022-08-21T06:03:48;100566.59;;;20.90;86.84
32733;BME280;11867;51.198;11.966;2022-08-21T06:08:51;100568.34;;;21.07;82.65
32733;BME280;11867;51.198;11.966;2022-08-21T06:13:56;100562.88;;;21.10;84.51
32733;BME280;11867;51.198;11.966;2022-08-21T06:18:59;100573.66;;;21.12;83.59
32733;BME280;11867;51.198;11.966;2022-08-21T06:24:04;100572.16;;;20.90;85.64
32733;BME280;11867;51.198;11.966;2022-08-21T06:29:08;100570.94;;;20.66;84.98
32733;BME280;11867;51.198;11.966;2022-08-21T06:34:12;100573.88;;;20.82;85.54
32733;BME280;11867;51.198;11.966;2022-08-21T06:39:15;100579.19;;;21.00;84.20
32733;BME280;11867;51.198;11.966;2022-08-21T06:44:32;100577.25;;;21.00;84.11
32733;BME280;11867;51.198;11.966;2022-08-21T06:49:34;100578.59;;;21.19;83.90
32733;BME280;11867;51.198;11.966;2022-08-21T06:54:38;100581.94;;;21.00;84.73
32733;BME280;11867;51.198;11.966;2022-08-21T06:59:42;100583.13;;;21.11;85.90
32733;BME280;11867;51.198;11.966;2022-08-21T07:04:45;100581.16;;;21.36;84.82
32733;BME280;11867;51.198;11.966;2022-08-21T07:09:47;100583.94;;;21.11;86.32
32733;BME280;11867;51.198;11.966;2022-08-21T07:14:51;100586.25;;;21.34;85.71
32733;BME280;11867;51.198;11.966;2022-08-21T07:19:54;100581.50;;;21.59;83.64
32733;BME280;11867;51.198;11.966;2022-08-21T07:24:57;100587.72;;;22.09;81.92
32733;BME280;11867;51.198;11.966;2022-08-21T07:30:01;100573.00;;;22.21;79.50
32733;BME280;11867;51.198;11.966;2022-08-21T07:35:04;100579.34;;;22.21;80.03
32733;BME280;11867;51.198;11.966;2022-08-21T07:40:08;100574.59;;;22.50;78.39
32733;BME280;11867;51.198;11.966;2022-08-21T07:45:13;100557.50;;;22.95;70.36
32733;BME280;11867;51.198;11.966;2022-08-21T07:50:16;100564.78;;;22.68;73.89
32733;BME280;11867;51.198;11.966;2022-08-21T07:55:20;100563.25;;;22.87;74.38
32733;BME280;11867;51.198;11.966;2022-08-21T08:00:25;100556.34;;;23.12;70.43
32733;BME280;11867;51.198;11.966;2022-08-21T08:05:30;100562.66;;;23.09;69.37
32733;BME280;11867;51.198;11.966;2022-08-21T08:10:33;100554.56;;;23.20;71.65
32733;BME280;11867;51.198;11.966;2022-08-21T08:15:37;100548.75;;;23.09;70.66
32733;BME280;11867;51.198;11.966;2022-08-21T08:20:40;100546.84;;;23.13;69.76
32733;BME280;11867;51.198;11.966;2022-08-21T08:25:43;100549.66;;;23.68;65.97
32733;BME280;11867;51.198;11.966;2022-08-21T08:30:47;100557.34;;;23.75;65.64
32733;BME280;11867;51.198;11.966;2022-08-21T08:35:51;100551.53;;;23.80;62.78
32733;BME280;11867;51.198;11.966;2022-08-21T08:40:57;100552.97;;;23.74;63.85
32733;BME280;11867;51.198;11.966;2022-08-21T08:46:10;100545.38;;;23.90;59.36
32733;BME280;11867;51.198;11.966;2022-08-21T08:51:17;100545.34;;;23.71;60.90
32733;BME280;11867;51.198;11.966;2022-08-21T08:56:27;100549.13;;;23.79;60.61
32733;BME280;11867;51.198;11.966;2022-08-21T09:01:31;100548.75;;;24.00;57.97
32733;BME280;11867;51.198;11.966;2022-08-21T09:06:48;100539.91;;;22.75;58.79
32733;BME280;11867;51.198;11.966;2022-08-21T09:12:00;100537.59;;;23.61;59.10
32733;BME280;11867;51.198;11.966;2022-08-21T09:17:13;100536.66;;;24.11;54.01
32733;BME280;11867;51.198;11.966;2022-08-21T09:22:31;100537.63;;;23.80;58.30
32733;BME280;11867;51.198;11.966;2022-08-21T09:27:38;100531.91;;;24.77;53.97
32733;BME280;11867;51.198;11.966;2022-08-21T09:32:43;100540.66;;;24.33;54.54
32733;BME280;11867;51.198;11.966;2022-08-21T09:37:50;100537.25;;;24.21;53.00
32733;BME280;11867;51.198;11.966;2022-08-21T09:42:54;100530.41;;;23.24;54.88
32733;BME280;11867;51.198;11.966;2022-08-21T09:48:13;100533.16;;;23.40;52.98
32733;BME280;11867;51.198;11.966;2022-08-21T09:53:20;100546.28;;;23.59;56.72
32733;BME280;11867;51.198;11.966;2022-08-21T09:58:31;100537.41;;;23.53;54.31
32733;BME280;11867;51.198;11.966;2022-08-21T10:03:35;100541.22;;;24.43;53.39
32733;BME280;11867;51.198;11.966;2022-08-21T10:08:40;100533.31;;;25.17;51.50
32733;BME280;11867;51.198;11.966;2022-08-21T10:13:50;100530.84;;;25.96;51.68
32733;BME280;11867;51.198;11.966;2022-08-21T10:19:05;100535.53;;;25.88;52.71
32733;BME280;11867;51.198;11.966;2022-08-21T10:24:17;100530.09;;;25.69;51.88
32733;BME280;11867;51.198;11.966;2022-08-21T10:29:41;100525.84;;;26.53;51.93
32733;BME280;11867;51.198;11.966;2022-08-21T10:34:52;100523.91;;;27.72;47.23
32733;BME280;11867;51.198;11.966;2022-08-21T10:40:05;100524.34;;;30.63;44.63
32733;BME280;11867;51.198;11.966;2022-08-21T10:45:18;100520.00;;;31.45;42.29
32733;BME280;11867;51.198;11.966;2022-08-21T10:50:31;100516.34;;;33.15;41.96
32733;BME280;11867;51.198;11.966;2022-08-21T10:55:37;100506.56;;;36.15;36.47
32733;BME280;11867;51.198;11.966;2022-08-21T11:00:46;100512.91;;;36.19;35.54
32733;BME280;11867;51.198;11.966;2022-08-21T11:05:54;100505.13;;;35.68;35.86
32733;BME280;11867;51.198;11.966;2022-08-21T11:11:01;100496.63;;;31.79;40.71
32733;BME280;11867;51.198;11.966;2022-08-21T11:16:16;100505.19;;;30.47;43.22
32733;BME280;11867;51.198;11.966;2022-08-21T11:21:42;100506.47;;;28.04;47.92
32733;BME280;11867;51.198;11.966;2022-08-21T11:26:54;100502.09;;;27.26;48.49
32733;BME280;11867;51.198;11.966;2022-08-21T11:32:14;100502.91;;;28.25;48.74
32733;BME280;11867;51.198;11.966;2022-08-21T11:37:46;100499.38;;;28.67;45.95
32733;BME280;11867;51.198;11.966;2022-08-21T11:42:57;100487.75;;;28.65;46.22
32733;BME280;11867;51.198;11.966;2022-08-21T11:48:10;100479.22;;;29.37;45.91
32733;BME280;11867;51.198;11.966;2022-08-21T11:53:23;100475.34;;;30.57;44.22
32733;BME280;11867;51.198;11.966;2022-08-21T11:58:32;100470.31;;;27.73;47.28
32733;BME280;11867;51.198;11.966;2022-08-21T12:03:40;100464.44;;;28.90;46.60
32733;BME280;11867;51.198;11.966;2022-08-21T12:08:57;100460.63;;;29.72;44.54
32733;BME280;11867;51.198;11.966;2022-08-21T12:14:13;100453.81;;;31.23;42.39
32733;BME280;11867;51.198;11.966;2022-08-21T12:19:30;100441.25;;;32.23;41.28
32733;BME280;11867;51.198;11.966;2022-08-21T12:24:36;100449.47;;;32.37;41.17
32733;BME280;11867;51.198;11.966;2022-08-21T12:29:46;100453.03;;;30.28;45.20
32733;BME280;11867;51.198;11.966;2022-08-21T12:34:52;100445.88;;;29.46;46.32
32733;BME280;11867;51.198;11.966;2022-08-21T12:40:00;100447.56;;;29.18;46.84
32733;BME280;11867;51.198;11.966;2022-08-21T12:45:12;100447.03;;;27.51;48.61
32733;BME280;11867;51.198;11.966;2022-08-21T12:50:20;100441.63;;;28.37;48.06
32733;BME280;11867;51.198;11.966;2022-08-21T12:55:30;100440.50;;;29.81;43.90
32733;BME280;11867;51.198;11.966;2022-08-21T13:00:33;100435.56;;;27.92;47.27
32733;BME280;11867;51.198;11.966;2022-08-21T13:05:37;100438.22;;;25.90;51.90
32733;BME280;11867;51.198;11.966;2022-08-21T13:10:41;100430.69;;;26.91;49.30
32733;BME280;11867;51.198;11.966;2022-08-21T13:15:45;100419.16;;;27.98;47.73
32733;BME280;11867;51.198;11.966;2022-08-21T13:20:48;100423.03;;;29.37;46.62
32733;BME280;11867;51.198;11.966;2022-08-21T13:25:54;100425.22;;;28.61;45.31
32733;BME280;11867;51.198;11.966;2022-08-21T13:30:57;100413.50;;;29.06;46.46
32733;BME280;11867;51.198;11.966;2022-08-21T13:36:04;100419.22;;;30.43;42.09
32733;BME280;11867;51.198;11.966;2022-08-21T13:41:20;100418.53;;;30.24;42.19
32733;BME280;11867;51.198;11.966;2022-08-21T13:46:26;100414.69;;;30.04;42.70
32733;BME280;11867;51.198;11.966;2022-08-21T13:51:31;100420.38;;;29.93;43.84
32733;BME280;11867;51.198;11.966;2022-08-21T13:56:43;100409.47;;;30.96;40.58
32733;BME280;11867;51.198;11.966;2022-08-21T14:01:49;100406.78;;;28.21;46.10
32733;BME280;11867;51.198;11.966;2022-08-21T14:06:54;100400.13;;;29.49;45.40
32733;BME280;11867;51.198;11.966;2022-08-21T14:11:59;100403.09;;;29.91;43.40
32733;BME280;11867;51.198;11.966;2022-08-21T14:17:06;100409.75;;;30.18;45.31
32733;BME280;11867;51.198;11.966;2022-08-21T14:22:37;100397.97;;;29.82;44.92
32733;BME280;11867;51.198;11.966;2022-08-21T14:27:48;100397.56;;;28.42;47.60
32733;BME280;11867;51.198;11.966;2022-08-21T14:32:52;100389.50;;;26.88;51.12
32733;BME280;11867;51.198;11.966;2022-08-21T14:37:55;100389.53;;;28.15;49.63
32733;BME280;11867;51.198;11.966;2022-08-21T14:42:59;100387.91;;;28.86;47.77
32733;BME280;11867;51.198;11.966;2022-08-21T14:48:02;100385.66;;;27.17;50.36
32733;BME280;11867;51.198;11.966;2022-08-21T14:53:06;100396.53;;;29.45;46.16
32733;BME280;11867;51.198;11.966;2022-08-21T14:58:13;100384.88;;;29.50;44.91
32733;BME280;11867;51.198;11.966;2022-08-21T15:03:15;100387.94;;;28.10;49.53
32733;BME280;11867;51.198;11.966;2022-08-21T15:08:18;100372.31;;;28.70;47.89
32733;BME280;11867;51.198;11.966;2022-08-21T15:13:22;100374.03;;;27.08;49.09
32733;BME280;11867;51.198;11.966;2022-08-21T15:18:28;100365.47;;;27.85;48.60
32733;BME280;11867;51.198;11.966;2022-08-21T15:23:31;100365.13;;;28.12;48.24
32733;BME280;11867;51.198;11.966;2022-08-21T15:28:36;100369.91;;;28.76;47.11
32733;BME280;11867;51.198;11.966;2022-08-21T15:33:39;100374.72;;;28.11;48.18
32733;BME280;11867;51.198;11.966;2022-08-21T15:38:44;100371.53;;;28.16;48.70
32733;BME280;11867;51.198;11.966;2022-08-21T15:43:50;100379.91;;;26.85;51.46
32733;BME280;11867;51.198;11.966;2022-08-21T15:48:54;100364.72;;;28.03;47.97
32733;BME280;11867;51.198;11.966;2022-08-21T15:54:00;100376.63;;;27.64;49.51
32733;BME280;11867;51.198;11.966;2022-08-21T15:59:08;100357.44;;;27.62;49.70
32733;BME280;11867;51.198;11.966;2022-08-21T16:04:19;100361.69;;;26.02;51.42
32733;BME280;11867;51.198;11.966;2022-08-21T16:09:23;100358.78;;;26.36;52.15
32733;BME280;11867;51.198;11.966;2022-08-21T16:14:28;100365.16;;;25.51;52.62
32733;BME280;11867;51.198;11.966;2022-08-21T16:19:32;100355.44;;;25.75;52.41
32733;BME280;11867;51.198;11.966;2022-08-21T16:24:34;100352.22;;;26.14;52.74
32733;BME280;11867;51.198;11.966;2022-08-21T16:29:40;100355.28;;;25.61;52.55
32733;BME280;11867;51.198;11.966;2022-08-21T16:34:45;100350.63;;;26.13;52.60
32733;BME280;11867;51.198;11.966;2022-08-21T16:39:48;100346.31;;;25.82;52.71
32733;BME280;11867;51.198;11.966;2022-08-21T16:44:55;100356.81;;;25.54;53.27
32733;BME280;11867;51.198;11.966;2022-08-21T16:49:57;100362.25;;;25.10;53.58
32733;BME280;11867;51.198;11.966;2022-08-21T16:55:01;100356.75;;;25.17;53.88
32733;BME280;11867;51.198;11.966;2022-08-21T17:00:09;100348.44;;;25.54;54.09
32733;BME280;11867;51.198;11.966;2022-08-21T17:05:13;100342.97;;;25.65;54.37
32733;BME280;11867;51.198;11.966;2022-08-21T17:10:16;100356.72;;;24.83;55.92
32733;BME280;11867;51.198;11.966;2022-08-21T17:15:24;100346.16;;;25.30;54.42
32733;BME280;11867;51.198;11.966;2022-08-21T17:20:28;100348.69;;;25.42;55.60
32733;BME280;11867;51.198;11.966;2022-08-21T17:25:32;100348.53;;;25.62;54.39
32733;BME280;11867;51.198;11.966;2022-08-21T17:30:36;100356.53;;;25.29;55.37
32733;BME280;11867;51.198;11.966;2022-08-21T17:35:43;100360.72;;;25.46;54.02
32733;BME280;11867;51.198;11.966;2022-08-21T17:40:46;100363.81;;;24.77;55.55
32733;BME280;11867;51.198;11.966;2022-08-21T17:45:51;100362.69;;;24.55;57.22
32733;BME280;11867;51.198;11.966;2022-08-21T17:50:53;100362.81;;;24.62;57.10
32733;BME280;11867;51.198;11.966;2022-08-21T17:55:56;100364.66;;;24.54;57.80
32733;BME280;11867;51.198;11.966;2022-08-21T18:01:00;100368.41;;;24.16;60.06
32733;BME280;11867;51.198;11.966;2022-08-21T18:06:05;100376.13;;;24.49;59.76
32733;BME280;11867;51.198;11.966;2022-08-21T18:11:07;100374.72;;;23.28;61.77
32733;BME280;11867;51.198;11.966;2022-08-21T18:16:20;100367.69;;;23.34;63.22
32733;BME280;11867;51.198;11.966;2022-08-21T18:21:24;100377.19;;;23.33;62.55
32733;BME280;11867;51.198;11.966;2022-08-21T18:26:29;100376.47;;;23.36;64.35
32733;BME280;11867;51.198;11.966;2022-08-21T18:31:36;100381.44;;;23.07;64.69
32733;BME280;11867;51.198;11.966;2022-08-21T18:36:39;100383.63;;;23.56;64.26
32733;BME280;11867;51.198;11.966;2022-08-21T18:41:42;100385.03;;;22.09;68.32
32733;BME280;11867;51.198;11.966;2022-08-21T18:46:51;100391.78;;;22.24;67.77
32733;BME280;11867;51.198;11.966;2022-08-21T18:51:55;100398.38;;;21.87;70.67
32733;BME280;11867;51.198;11.966;2022-08-21T18:56:58;100392.59;;;21.64;68.56
32733;BME280;11867;51.198;11.966;2022-08-21T19:02:07;100404.72;;;21.60;69.46
32733;BME280;11867;51.198;11.966;2022-08-21T19:07:10;100400.97;;;21.96;69.46
32733;BME280;11867;51.198;11.966;2022-08-21T19:12:17;100404.50;;;22.41;67.90
32733;BME280;11867;51.198;11.966;2022-08-21T19:17:23;100400.16;;;21.39;71.34
32733;BME280;11867;51.198;11.966;2022-08-21T19:22:26;100403.81;;;21.55;71.24
32733;BME280;11867;51.198;11.966;2022-08-21T19:27:28;100403.97;;;21.75;70.62
32733;BME280;11867;51.198;11.966;2022-08-21T19:32:32;100414.06;;;21.27;72.30
32733;BME280;11867;51.198;11.966;2022-08-21T19:37:37;100402.47;;;21.09;73.59
32733;BME280;11867;51.198;11.966;2022-08-21T19:42:40;100411.78;;;21.16;73.75
32733;BME280;11867;51.198;11.966;2022-08-21T19:47:46;100417.97;;;20.98;74.69
32733;BME280;11867;51.198;11.966;2022-08-21T19:52:51;100415.22;;;21.38;72.86
32733;BME280;11867;51.198;11.966;2022-08-21T19:58:27;100421.47;;;20.70;76.54
32733;BME280;11867;51.198;11.966;2022-08-21T20:03:35;100414.69;;;21.61;74.21
32733;BME280;11867;51.198;11.966;2022-08-21T20:08:37;100404.28;;;21.58;73.97
32733;BME280;11867;51.198;11.966;2022-08-21T20:13:41;100418.78;;;21.95;71.69
32733;BME280;11867;51.198;11.966;2022-08-21T20:18:45;100412.72;;;22.21;70.53
32733;BME280;11867;51.198;11.966;2022-08-21T20:23:49;100419.25;;;22.13;70.83
32733;BME280;11867;51.198;11.966;2022-08-21T20:28:52;100415.31;;;22.14;70.69
32733;BME280;11867;51.198;11.966;2022-08-21T20:33:56;100421.50;;;21.63;72.12
32733;BME280;11867;51.198;11.966;2022-08-21T20:38:59;100422.28;;;21.64;72.89
32733;BME280;11867;51.198;11.966;2022-08-21T20:44:02;100429.59;;;21.84;71.51
32733;BME280;11867;51.198;11.966;2022-08-21T20:49:08;100429.34;;;21.61;72.20
32733;BME280;11867;51.198;11.966;2022-08-21T20:54:19;100427.19;;;21.54;72.26
32733;BME280;11867;51.198;11.966;2022-08-21T20:59:39;100437.66;;;21.21;73.00
32733;BME280;11867;51.198;11.966;2022-08-21T21:04:47;100438.97;;;20.49;77.30
32733;BME280;11867;51.198;11.966;2022-08-21T21:09:53;100438.44;;;20.68;77.18
32733;BME280;11867;51.198;11.966;2022-08-21T21:15:03;100436.13;;;20.58;77.33
32733;BME280;11867;51.198;11.966;2022-08-21T21:20:11;100432.19;;;20.47;78.27
32733;BME280;11867;51.198;11.966;2022-08-21T21:25:19;100430.81;;;19.95;80.71
32733;BME280;11867;51.198;11.966;2022-08-21T21:30:28;100434.44;;;19.11;85.20
32733;BME280;11867;51.198;11.966;2022-08-21T21:35:40;100442.41;;;20.09;79.08
32733;BME280;11867;51.198;11.966;2022-08-21T21:40:58;100453.97;;;20.24;77.55
32733;BME280;11867;51.198;11.966;2022-08-21T21:46:23;100465.75;;;18.65;86.83
32733;BME280;11867;51.198;11.966;2022-08-21T21:51:43;100457.75;;;18.33;90.13
32733;BME280;11867;51.198;11.966;2022-08-21T21:57:00;100463.16;;;18.98;86.65
32733;BME280;11867;51.198;11.966;2022-08-21T22:02:10;100465.06;;;18.29;90.41
32733;BME280;11867;51.198;11.966;2022-08-21T22:07:23;100466.44;;;17.97;92.87
32733;BME280;11867;51.198;11.966;2022-08-21T22:12:38;100469.88;;;17.59;94.59
32733;BME280;11867;51.198;11.966;2022-08-21T22:18:00;100471.16;;;17.62;94.68
32733;BME280;11867;51.198;11.966;2022-08-21T22:23:09;100464.19;;;17.90;93.46
32733;BME280;11867;51.198;11.966;2022-08-21T22:28:18;100456.38;;;18.48;88.73
32733;BME280;11867;51.198;11.966;2022-08-21T22:33:27;100467.94;;;18.42;88.74
32733;BME280;11867;51.198;11.966;2022-08-21T22:38:33;100471.06;;;18.31;89.15
32733;BME280;11867;51.198;11.966;2022-08-21T22:43:51;100460.38;;;18.21;89.54
32733;BME280;11867;51.198;11.966;2022-08-21T22:48:59;100470.66;;;17.77;92.39
32733;BME280;11867;51.198;11.966;2022-08-21T22:54:05;100468.25;;;17.49;94.25
32733;BME280;11867;51.198;11.966;2022-08-21T22:59:25;100472.91;;;17.23;96.54
32733;BME280;11867;51.198;11.966;2022-08-21T23:04:29;100478.06;;;17.15;97.02
32733;BME280;11867;51.198;11.966;2022-08-21T23:09:37;100478.13;;;17.59;93.74
32733;BME280;11867;51.198;11.966;2022-08-21T23:14:47;100486.63;;;16.88;98.56
32733;BME280;11867;51.198;11.966;2022-08-21T23:19:59;100476.50;;;17.67;92.70
32733;BME280;11867;51.198;11.966;2022-08-21T23:25:19;100477.16;;;17.99;89.33
32733;BME280;11867;51.198;11.966;2022-08-21T23:30:37;100485.34;;;17.03;96.89
32733;BME280;11867;51.198;11.966;2022-08-21T23:35:44;100474.88;;;17.40;94.11
32733;BME280;11867;51.198;11.966;2022-08-21T23:41:10;100478.13;;;17.24;95.02
32733;BME280;11867;51.198;11.966;2022-08-21T23:46:28;100472.56;;;16.98;96.01
32733;BME280;11867;51.198;11.966;2022-08-21T23:51:39;100467.84;;;16.50;99.19
32733;BME280;11867;51.198;11.966;2022-08-21T23:56:59;100471.88;;;16.52;98.10
